Selin D — 9HDX8 — position and weather

sailwx.info

Track history (hours):
 
Tides and Currents Weather Stations Pressure Air Temp Water Temp Dewpoint Dewpoint Depression Visibility Wind Speed Wind Dir Waves Ship Positions

Selin D

Last reported at 2017-Sep-22 02:00 UTC. Time now 2017-Sep-23 23:58 UTC.
Position N 43°04' E 005°07'.

Length 113 m; draft 7.8 m.

Type: Ship. MMSI: 215872000.

Date/timePositionNaut miles runAvg speedWind from/ knotsBaromVisibWave heightAir tempDewpointWater temp
2017-Sep-22 02:00N 43°04' E 005°07'510.4
2017-Sep-22 01:30N 43°08' E 005°03'510.4
2017-Sep-22 01:00N 43°13' E 005°01'510.6
2017-Sep-22 00:30N 43°18' E 004°59'510.3
2017-Sep-22 00:00N 43°23' E 004°56'4 8.8
2017-Sep-21 23:30N 43°25' E 004°51'1 1.7
2017-Sep-21 23:00N 43°26' E 004°50'0 0.0
2017-Sep-21 22:28N 43°26' E 004°50'0 0.0
2017-Sep-21 21:58N 43°26' E 004°50'0 0.0
2017-Sep-21 21:28N 43°26' E 004°50'0 0.0
2017-Sep-21 20:58N 43°26' E 004°50'0 0.0
2017-Sep-21 20:28N 43°26' E 004°50'0 0.0
2017-Sep-21 19:58N 43°26' E 004°50'0 0.0
2017-Sep-21 19:28N 43°26' E 004°50'0 0.0
2017-Sep-21 18:58N 43°26' E 004°50'0 0.0
2017-Sep-21 18:28N 43°26' E 004°50'0 0.0
2017-Sep-21 17:58N 43°26' E 004°50'0 0.0
2017-Sep-21 17:28N 43°26' E 004°50'0 0.0
2017-Sep-21 16:58N 43°26' E 004°50'0 0.0
2017-Sep-21 16:28N 43°26' E 004°50'0 0.0
2017-Sep-21 15:58N 43°26' E 004°50'0 0.0
2017-Sep-21 15:28N 43°26' E 004°50'0 0.0
2017-Sep-21 14:58N 43°26' E 004°50'0 0.0
2017-Sep-21 14:28N 43°26' E 004°50'0 0.0
2017-Sep-21 13:58N 43°26' E 004°50'0 0.0
2017-Sep-21 13:25N 43°26' E 004°50'0 0.0
2017-Sep-21 12:58N 43°26' E 004°50'0 0.0
2017-Sep-21 12:28N 43°26' E 004°50'0 0.0
2017-Sep-21 11:58N 43°26' E 004°50'0 0.0
2017-Sep-21 11:28N 43°26' E 004°50'0 0.0
2017-Sep-21 10:58N 43°26' E 004°50'0 0.0
2017-Sep-21 10:28N 43°26' E 004°50'0 0.0
2017-Sep-21 09:58N 43°26' E 004°50'0 0.0
2017-Sep-21 09:28N 43°26' E 004°50'0 0.0
2017-Sep-21 08:58N 43°26' E 004°50'0 0.0
2017-Sep-21 08:28N 43°26' E 004°50'0 0.0
2017-Sep-21 07:58N 43°26' E 004°50'0 0.0
2017-Sep-21 07:28N 43°26' E 004°50'0 0.0
2017-Sep-21 06:46N 43°26' E 004°50'0 0.0
2017-Sep-21 06:28N 43°26' E 004°50'0 0.0
2017-Sep-21 05:58N 43°26' E 004°50'0 0.0
2017-Sep-21 05:28N 43°26' E 004°50'0 0.0
2017-Sep-21 04:58N 43°26' E 004°50'0 0.0
2017-Sep-21 04:28N 43°26' E 004°50'0 0.0
2017-Sep-21 03:58N 43°26' E 004°50'0 0.0
2017-Sep-21 03:28N 43°26' E 004°50'0 0.1
2017-Sep-21 03:00N 43°25' E 004°50'4 8.4
2017-Sep-21 02:30N 43°24' E 004°55'5 9.5
2017-Sep-21 02:00N 43°20' E 004°59'3 5.6
2017-Sep-21 01:30N 43°17' E 005°00'2 4.8
2017-Sep-21 01:01N 43°15' E 005°01'3 5.2
2017-Sep-21 00:30N 43°12' E 005°02'3 6.8
2017-Sep-21 00:01N 43°09' E 005°01'4 7.2
2017-Sep-20 23:30N 43°06' E 004°58'4 7.2
2017-Sep-20 23:00N 43°03' E 004°55'4 7.5
2017-Sep-20 22:30N 43°00' E 004°53'4 7.5
2017-Sep-20 22:00N 42°57' E 004°50'4 7.8
2017-Sep-20 21:30N 42°54' E 004°47'4 7.7
2017-Sep-20 21:00N 42°50' E 004°44'4 7.6
2017-Sep-20 20:30N 42°47' E 004°42'4 8.7
2017-Sep-20 20:00N 42°43' E 004°39'611.6
2017-Sep-20 19:30N 42°38' E 004°35'611.5
2017-Sep-20 19:00N 42°33' E 004°30'10311.4
2017-Sep-20 09:55N 41°10' E 003°08'410.1
2017-Sep-20 09:29N 41°07' E 003°04'510.3
2017-Sep-20 09:00N 41°03' E 003°01'510.1
2017-Sep-20 08:30N 40°59' E 002°57'510.2
2017-Sep-20 08:00N 40°54' E 002°53'5 9.8
2017-Sep-20 07:31N 40°51' E 002°48'5 9.6
2017-Sep-20 07:00N 40°48' E 002°44'5 9.2
2017-Sep-20 06:31N 40°45' E 002°39'510.4
2017-Sep-20 06:00N 40°41' E 002°35'510.5
2017-Sep-20 05:31N 40°37' E 002°30'510.4
2017-Sep-20 05:00N 40°33' E 002°26'510.1
2017-Sep-20 04:30N 40°29' E 002°21'510.0
2017-Sep-20 04:00N 40°25' E 002°17'510.2
2017-Sep-20 03:31N 40°21' E 002°13'510.4
2017-Sep-20 03:00N 40°17' E 002°09'510.5
2017-Sep-20 02:30N 40°13' E 002°04'510.2
2017-Sep-20 02:00N 40°10' E 001°60'510.2
2017-Sep-20 01:31N 40°06' E 001°56'510.1
2017-Sep-20 01:01N 40°02' E 001°51'5 9.9
2017-Sep-20 00:30N 39°58' E 001°47'510.0
2017-Sep-20 00:00N 39°54' E 001°43'5 9.9
2017-Sep-19 23:30N 39°50' E 001°39'5 9.9
2017-Sep-19 23:00N 39°46' E 001°35'510.0
2017-Sep-19 22:31N 39°43' E 001°31'5 9.9
2017-Sep-19 21:59N 39°39' E 001°26'5 9.9
2017-Sep-19 21:28N 39°35' E 001°22'510.1
2017-Sep-19 21:00N 39°31' E 001°18'510.2
2017-Sep-19 20:30N 39°28' E 001°13'510.4
2017-Sep-19 20:00N 39°24' E 001°09'109 4.8
2017-Sep-18 21:26N 37°37' E 000°37'1 1.6
2017-Sep-18 21:00N 37°37' E 000°37'1 1.7
2017-Sep-18 20:27N 37°36' E 000°37'1 1.7
2017-Sep-18 20:01N 37°35' E 000°36'1 1.9
2017-Sep-18 19:31N 37°34' E 000°36'1 1.9
2017-Sep-18 19:01N 37°33' E 000°36'1 2.1
2017-Sep-18 18:30N 37°32' E 000°36'1 2.1
2017-Sep-18 18:01N 37°31' E 000°35'1 2.1
2017-Sep-18 17:30N 37°30' E 000°35'1 2.0
2017-Sep-18 17:01N 37°29' E 000°35'1 1.9
2017-Sep-18 16:31N 37°28' E 000°34'1 1.9
2017-Sep-18 16:01N 37°27' E 000°34'1 1.9
2017-Sep-18 15:31N 37°26' E 000°34'1 1.8
2017-Sep-18 15:00N 37°25' E 000°33'1 1.8
2017-Sep-18 14:31N 37°25' E 000°33'1 1.8
2017-Sep-18 14:01N 37°24' E 000°33'4 1.7
2017-Sep-18 11:51N 37°20' E 000°31'1 1.4
2017-Sep-18 11:29N 37°20' E 000°31'3 1.2
2017-Sep-18 08:42N 37°16' E 000°30'0 0.9
2017-Sep-18 08:29N 37°16' E 000°30'3 2.7
2017-Sep-18 07:20N 37°14' E 000°28'6 9.0
2017-Sep-18 06:41N 37°09' E 000°24'17 9.0
2017-Sep-18 04:45N 36°55' E 000°10'36 9.5
2017-Sep-18 01:01N 36°27' W 000°17'0 9.8
2017-Sep-18 00:59N 36°27' W 000°17'7 9.7
2017-Sep-18 00:19N 36°22' W 000°22'3 9.6
2017-Sep-18 00:00N 36°20' W 000°25'5 9.5
2017-Sep-17 23:30N 36°16' W 000°28'5 9.4
2017-Sep-17 22:58N 36°12' W 000°32'4 9.4
2017-Sep-17 22:31N 36°09' W 000°35'  
2017-Sep-15 00:39N 35°43' W 000°38'0 0.0
2017-Sep-13 17:24N 35°43' W 000°38'1 2.4
2017-Sep-13 17:01N 35°44' W 000°38'3 5.8
2017-Sep-13 16:30N 35°46' W 000°39'3 5.5
2017-Sep-13 15:58N 35°49' W 000°40'1 2.7
2017-Sep-13 15:28N 35°49' W 000°42'1 2.7
2017-Sep-13 14:59N 35°50' W 000°43'1 2.6
2017-Sep-13 14:30N 35°50' W 000°45'1 2.6
2017-Sep-13 14:00N 35°50' W 000°47'1 2.6
2017-Sep-13 13:30N 35°50' W 000°48'1 2.9
2017-Sep-13 13:00N 35°50' W 000°50'2 3.0
2017-Sep-13 12:30N 35°51' W 000°52'202 7.4
2017-Sep-12 09:09N 35°57' W 005°01'2 9.0
2017-Sep-12 08:53N 35°57' W 005°04'5 9.3
2017-Sep-12 08:24N 35°57' W 005°09'410.0
2017-Sep-12 08:00N 35°56' W 005°14'4 7.6
2017-Sep-12 07:30N 35°55' W 005°18'1 1.8
2017-Sep-12 07:00N 35°54' W 005°19'0 0.0
2017-Sep-12 06:30N 35°54' W 005°19'0 0.0
2017-Sep-12 05:58N 35°54' W 005°19'0 0.0
2017-Sep-12 05:28N 35°54' W 005°19'0 0.0
2017-Sep-12 04:58N 35°54' W 005°19'0 0.0
2017-Sep-12 03:58N 35°54' W 005°19'0 0.0
2017-Sep-12 03:28N 35°54' W 005°19'0 0.0
2017-Sep-12 02:58N 35°54' W 005°19'0 0.0
2017-Sep-12 02:28N 35°54' W 005°19'  
Track history (hours):
 
Tides and Currents Weather Stations Pressure Air Temp Water Temp Dewpoint Dewpoint Depression Visibility Wind Speed Wind Dir Waves Ship Positions

Selin D

Last reported at 2017-Sep-22 02:00 UTC. Time now 2017-Sep-23 23:58 UTC.
Position N 43°04' E 005°07'.

Length 113 m; draft 7.8 m.

Type: Ship. MMSI: 215872000.

Date/timePositionNaut miles runAvg speedWind from/ knotsBaromVisibWave heightAir tempDewpointWater temp
2017-Sep-22 02:00N 43°04' E 005°07'510.4
2017-Sep-22 01:30N 43°08' E 005°03'510.4
2017-Sep-22 01:00N 43°13' E 005°01'510.6
2017-Sep-22 00:30N 43°18' E 004°59'510.3
2017-Sep-22 00:00N 43°23' E 004°56'4 8.8
2017-Sep-21 23:30N 43°25' E 004°51'1 1.7
2017-Sep-21 23:00N 43°26' E 004°50'0 0.0
2017-Sep-21 22:28N 43°26' E 004°50'0 0.0
2017-Sep-21 21:58N 43°26' E 004°50'0 0.0
2017-Sep-21 21:28N 43°26' E 004°50'0 0.0
2017-Sep-21 20:58N 43°26' E 004°50'0 0.0
2017-Sep-21 20:28N 43°26' E 004°50'0 0.0
2017-Sep-21 19:58N 43°26' E 004°50'0 0.0
2017-Sep-21 19:28N 43°26' E 004°50'0 0.0
2017-Sep-21 18:58N 43°26' E 004°50'0 0.0
2017-Sep-21 18:28N 43°26' E 004°50'0 0.0
2017-Sep-21 17:58N 43°26' E 004°50'0 0.0
2017-Sep-21 17:28N 43°26' E 004°50'0 0.0
2017-Sep-21 16:58N 43°26' E 004°50'0 0.0
2017-Sep-21 16:28N 43°26' E 004°50'0 0.0
2017-Sep-21 15:58N 43°26' E 004°50'0 0.0
2017-Sep-21 15:28N 43°26' E 004°50'0 0.0
2017-Sep-21 14:58N 43°26' E 004°50'0 0.0
2017-Sep-21 14:28N 43°26' E 004°50'0 0.0
2017-Sep-21 13:58N 43°26' E 004°50'0 0.0
2017-Sep-21 13:25N 43°26' E 004°50'0 0.0
2017-Sep-21 12:58N 43°26' E 004°50'0 0.0
2017-Sep-21 12:28N 43°26' E 004°50'0 0.0
2017-Sep-21 11:58N 43°26' E 004°50'0 0.0
2017-Sep-21 11:28N 43°26' E 004°50'0 0.0
2017-Sep-21 10:58N 43°26' E 004°50'0 0.0
2017-Sep-21 10:28N 43°26' E 004°50'0 0.0
2017-Sep-21 09:58N 43°26' E 004°50'0 0.0
2017-Sep-21 09:28N 43°26' E 004°50'0 0.0
2017-Sep-21 08:58N 43°26' E 004°50'0 0.0
2017-Sep-21 08:28N 43°26' E 004°50'0 0.0
2017-Sep-21 07:58N 43°26' E 004°50'0 0.0
2017-Sep-21 07:28N 43°26' E 004°50'0 0.0
2017-Sep-21 06:46N 43°26' E 004°50'0 0.0
2017-Sep-21 06:28N 43°26' E 004°50'0 0.0
2017-Sep-21 05:58N 43°26' E 004°50'0 0.0
2017-Sep-21 05:28N 43°26' E 004°50'0 0.0
2017-Sep-21 04:58N 43°26' E 004°50'0 0.0
2017-Sep-21 04:28N 43°26' E 004°50'0 0.0
2017-Sep-21 03:58N 43°26' E 004°50'0 0.0
2017-Sep-21 03:28N 43°26' E 004°50'0 0.1
2017-Sep-21 03:00N 43°25' E 004°50'4 8.4
2017-Sep-21 02:30N 43°24' E 004°55'5 9.5
2017-Sep-21 02:00N 43°20' E 004°59'3 5.6
2017-Sep-21 01:30N 43°17' E 005°00'2 4.8
2017-Sep-21 01:01N 43°15' E 005°01'3 5.2
2017-Sep-21 00:30N 43°12' E 005°02'3 6.8
2017-Sep-21 00:01N 43°09' E 005°01'4 7.2
2017-Sep-20 23:30N 43°06' E 004°58'4 7.2
2017-Sep-20 23:00N 43°03' E 004°55'4 7.5
2017-Sep-20 22:30N 43°00' E 004°53'4 7.5
2017-Sep-20 22:00N 42°57' E 004°50'4 7.8
2017-Sep-20 21:30N 42°54' E 004°47'4 7.7
2017-Sep-20 21:00N 42°50' E 004°44'4 7.6
2017-Sep-20 20:30N 42°47' E 004°42'4 8.7
2017-Sep-20 20:00N 42°43' E 004°39'611.6
2017-Sep-20 19:30N 42°38' E 004°35'611.5
2017-Sep-20 19:00N 42°33' E 004°30'10311.4
2017-Sep-20 09:55N 41°10' E 003°08'410.1
2017-Sep-20 09:29N 41°07' E 003°04'510.3
2017-Sep-20 09:00N 41°03' E 003°01'510.1
2017-Sep-20 08:30N 40°59' E 002°57'510.2
2017-Sep-20 08:00N 40°54' E 002°53'5 9.8
2017-Sep-20 07:31N 40°51' E 002°48'5 9.6
2017-Sep-20 07:00N 40°48' E 002°44'5 9.2
2017-Sep-20 06:31N 40°45' E 002°39'510.4
2017-Sep-20 06:00N 40°41' E 002°35'510.5
2017-Sep-20 05:31N 40°37' E 002°30'510.4
2017-Sep-20 05:00N 40°33' E 002°26'510.1
2017-Sep-20 04:30N 40°29' E 002°21'510.0
2017-Sep-20 04:00N 40°25' E 002°17'510.2
2017-Sep-20 03:31N 40°21' E 002°13'510.4
2017-Sep-20 03:00N 40°17' E 002°09'510.5
2017-Sep-20 02:30N 40°13' E 002°04'510.2
2017-Sep-20 02:00N 40°10' E 001°60'510.2
2017-Sep-20 01:31N 40°06' E 001°56'510.1
2017-Sep-20 01:01N 40°02' E 001°51'5 9.9
2017-Sep-20 00:30N 39°58' E 001°47'510.0
2017-Sep-20 00:00N 39°54' E 001°43'5 9.9
2017-Sep-19 23:30N 39°50' E 001°39'5 9.9
2017-Sep-19 23:00N 39°46' E 001°35'510.0
2017-Sep-19 22:31N 39°43' E 001°31'5 9.9
2017-Sep-19 21:59N 39°39' E 001°26'5 9.9
2017-Sep-19 21:28N 39°35' E 001°22'510.1
2017-Sep-19 21:00N 39°31' E 001°18'510.2
2017-Sep-19 20:30N 39°28' E 001°13'510.4
2017-Sep-19 20:00N 39°24' E 001°09'109 4.8
2017-Sep-18 21:26N 37°37' E 000°37'1 1.6
2017-Sep-18 21:00N 37°37' E 000°37'1 1.7
2017-Sep-18 20:27N 37°36' E 000°37'1 1.7
2017-Sep-18 20:01N 37°35' E 000°36'1 1.9
2017-Sep-18 19:31N 37°34' E 000°36'1 1.9
2017-Sep-18 19:01N 37°33' E 000°36'1 2.1
2017-Sep-18 18:30N 37°32' E 000°36'1 2.1
2017-Sep-18 18:01N 37°31' E 000°35'1 2.1
2017-Sep-18 17:30N 37°30' E 000°35'1 2.0
2017-Sep-18 17:01N 37°29' E 000°35'1 1.9
2017-Sep-18 16:31N 37°28' E 000°34'1 1.9
2017-Sep-18 16:01N 37°27' E 000°34'1 1.9
2017-Sep-18 15:31N 37°26' E 000°34'1 1.8
2017-Sep-18 15:00N 37°25' E 000°33'1 1.8
2017-Sep-18 14:31N 37°25' E 000°33'1 1.8
2017-Sep-18 14:01N 37°24' E 000°33'4 1.7
2017-Sep-18 11:51N 37°20' E 000°31'1 1.4
2017-Sep-18 11:29N 37°20' E 000°31'3 1.2
2017-Sep-18 08:42N 37°16' E 000°30'0 0.9
2017-Sep-18 08:29N 37°16' E 000°30'3 2.7
2017-Sep-18 07:20N 37°14' E 000°28'6 9.0
2017-Sep-18 06:41N 37°09' E 000°24'17 9.0
2017-Sep-18 04:45N 36°55' E 000°10'36 9.5
2017-Sep-18 01:01N 36°27' W 000°17'0 9.8
2017-Sep-18 00:59N 36°27' W 000°17'7 9.7
2017-Sep-18 00:19N 36°22' W 000°22'3 9.6
2017-Sep-18 00:00N 36°20' W 000°25'5 9.5
2017-Sep-17 23:30N 36°16' W 000°28'5 9.4
2017-Sep-17 22:58N 36°12' W 000°32'4 9.4
2017-Sep-17 22:31N 36°09' W 000°35'  
2017-Sep-15 00:39N 35°43' W 000°38'0 0.0
2017-Sep-13 17:24N 35°43' W 000°38'1 2.4
2017-Sep-13 17:01N 35°44' W 000°38'3 5.8
2017-Sep-13 16:30N 35°46' W 000°39'3 5.5
2017-Sep-13 15:58N 35°49' W 000°40'1 2.7
2017-Sep-13 15:28N 35°49' W 000°42'1 2.7
2017-Sep-13 14:59N 35°50' W 000°43'1 2.6
2017-Sep-13 14:30N 35°50' W 000°45'1 2.6
2017-Sep-13 14:00N 35°50' W 000°47'1 2.6
2017-Sep-13 13:30N 35°50' W 000°48'1 2.9
2017-Sep-13 13:00N 35°50' W 000°50'2 3.0
2017-Sep-13 12:30N 35°51' W 000°52'202 7.4
2017-Sep-12 09:09N 35°57' W 005°01'2 9.0
2017-Sep-12 08:53N 35°57' W 005°04'5 9.3
2017-Sep-12 08:24N 35°57' W 005°09'410.0
2017-Sep-12 08:00N 35°56' W 005°14'4 7.6
2017-Sep-12 07:30N 35°55' W 005°18'1 1.8
2017-Sep-12 07:00N 35°54' W 005°19'0 0.0
2017-Sep-12 06:30N 35°54' W 005°19'0 0.0
2017-Sep-12 05:58N 35°54' W 005°19'0 0.0
2017-Sep-12 05:28N 35°54' W 005°19'0 0.0
2017-Sep-12 04:58N 35°54' W 005°19'0 0.0
2017-Sep-12 03:58N 35°54' W 005°19'0 0.0
2017-Sep-12 03:28N 35°54' W 005°19'0 0.0
2017-Sep-12 02:58N 35°54' W 005°19'0 0.0
2017-Sep-12 02:28N 35°54' W 005°19'  

Dump ship's entire track history